WEATHER DATA

TODAY
Time Temp. Dewp. Hum. Wind dir Wind speed Wind gust Bar. 1h Prec. 24h Prec.
00:09 8.2 5.3 82 90 0.3 0.6 1019.7 0.0000 0.0000
00:19 8.2 5.3 82 0 0.6 1019.7 0.0000 0.0000
00:39 8 5.1 82 0 0.3 1019.6 0.0000 0.0000
00:51 7.8 4.9 82 0 0.6 1019.7 0.0000 0.0000
01:09 7.5 4.8 83 0 0.6 1019.7 0.0000 0.0000
01:19 7.6 5.2 85 8 0.3 0.8 1019.6 0.0000 0.0000
01:30 7.7 5.2 84 39 0.3 0.6 1019.6 0.0000 0.0000
01:40 7.5 4.8 83 53 0.3 0.6 1019.6 0.0000 0.0000
01:49 7.3 4.4 82 354 0.3 0.6 1019.6 0.0000 0.0000
02:00 7.1 4.4 83 0 0.3 1019.6 0.0000 0.0000
02:10 7.2 4.9 85 55 0.3 0.6 1019.6 0.0000 0.0000
02:20 7.4 5.2 86 35 0.3 1.1 1019.5 0.0000 0.0000
02:30 7.2 4.7 84 0 0.3 1019.5 0.0000 0.0000
02:40 7.1 4.8 85 59 0.3 0.6 1019.6 0.0000 0.0000
02:50 7.1 4.6 84 90 0.3 0.6 1019.5 0.0000 0.0000
03:00 6.8 4.1 83 57 0.3 0.8 1019.7 0.0000 0.0000
03:11 6.6 3.8 82 0 0.6 1019.7 0.0000 0.0000
03:20 6.4 3.7 83 0 0.6 1019.6 0.0000 0.0000
03:30 6.4 4.1 85 270 0.3 0.6 1019.6 0.0000 0.0000
03:40 6.5 4.2 85 0 0.3 1019.5 0.0000 0.0000
03:50 6.4 3.9 84 0 0.6 1019.5 0.0000 0.0000
04:00 6.2 3.7 84 0 0.6 1019.4 0.0000 0.0000
04:21 5.9 3.2 83 0 0.3 1019.5 0.0000 0.0000
04:31 5.9 3.4 84 0 0.3 1019.5 0.0000 0.0000
04:40 5.9 3.4 84 0 0.6 1019.6 0.0000 0.0000
04:51 5.8 3.3 84 0 0.6 1019.5 0.0000 0.0000
05:01 5.8 3.5 85 0 0.3 1019.4 0.0000 0.0000
05:11 5.6 3.1 84 0 0.3 1019.4 0.0000 0.0000
05:20 5.6 3.1 84 0 0.3 1019.4 0.0000 0.0000
05:31 5.6 3.1 84 0 0.3 1019.4 0.0000 0.0000
05:41 5.5 3 84 0 0.3 1019.5 0.0000 0.0000
05:51 5.3 2.8 84 0 0.3 1019.4 0.0000 0.0000
06:01 5.2 2.7 84 0 0.3 1019.5 0.0000 0.0000
06:11 5.2 2.7 84 0 0.3 1019.4 0.0000 0.0000
06:21 5.2 2.7 84 0 0.3 1019.5 0.0000 0.0000
06:31 5.1 2.6 84 0 0.3 1019.4 0.0000 0.0000
06:42 5 2.5 84 0 0.6 1019.6 0.0000 0.0000
06:56 4.8 2.3 84 0 0.6 1019.5 0.0000 0.0000
07:06 4.9 2.4 84 0 0.6 1019.6 0.0000 0.0000
07:16 4.8 2.3 84 270 0.3 0.6 1019.5 0.0000 0.0000
07:26 4.8 2.3 84 0 0.6 1019.7 0.0000 0.0000
07:36 5 2.9 86 202 0.3 0.8 1019.7 0.0000 0.0000
07:47 5 2.9 86 218 0.3 0.8 1019.9 0.0000 0.0000
07:57 5.2 3.2 87 233 0.3 0.6 1020 0.0000 0.0000
08:06 5.3 3 85 344 0.3 0.6 1020 0.0000 0.0000
08:16 5 2.5 84 270 0.3 0.6 1020 0.0000 0.0000
08:27 5.2 3.1 86 270 0.3 0.6 1020.2 0.0000 0.0000
08:37 5.5 3.5 87 198 0.3 0.6 1020.2 0.0000 0.0000
08:47 6 4.2 88 0 0.6 1020.4 0.0000 0.0000
08:57 6.5 4.7 88 0 0.8 1020.5 0.0000 0.0000
09:07 6.9 4.9 87 315 0.3 0.8 1020.4 0.0000 0.0000
09:17 7.4 5.5 88 354 0.3 0.6 1020.5 0.0000 0.0000
09:27 7.8 5.9 88 309 0.3 1.4 1020.5 0.0000 0.0000
09:37 8.1 6.2 88 315 0.3 0.6 1020.6 0.0000 0.0000
09:47 8.6 6.6 87 319 0.3 0.8 1020.6 0.0000 0.0000
09:57 9 7 87 270 0.3 1.4 1020.6 0.0000 0.0000
10:07 9.5 7.3 86 45 0.3 0.8 1020.7 0.0000 0.0000
10:17 9.9 7.5 85 90 0.3 0.8 1020.7 0.0000 0.0000
10:27 10.3 7.7 84 334 0.3 1.1 1020.6 0.0000 0.0000
10:37 10.7 8.1 84 55 0.3 1.1 1020.7 0.0000 0.0000
10:48 11.2 8.6 84 90 0.3 0.8 1020.8 0.0000 0.0000
11:07 12.2 9.2 82 37 0.3 1.1 1020.7 0.0000 0.0000
11:18 12.8 9.4 80 45 0.6 1.1 1020.7 0.0000 0.0000
11:28 13.3 9.9 80 34 0.3 1.1 1020.6 0.0000 0.0000
11:37 14 10.6 80 90 0.3 1.1 1020.6 0.0000 0.0000
11:47 14.9 11.1 78 45 0.6 1.4 1020.2 0.0000 0.0000
11:58 15.7 11.3 75 26 0.6 1.7 1020.2 0.0000 0.0000
12:08 16.3 11.2 72 335 0.6 2.2 1020.2 0.0000 0.0000
12:18 17 11.3 69 336 0.6 1.9 1020.1 0.0000 0.0000
12:28 17.5 11.8 69 52 0.6 1.4 1020.2 0.0000 0.0000
12:38 17.9 11.7 67 45 0.6 1.7 1020.1 0.0000 0.0000
12:48 18.2 11.8 66 42 0.8 3.1 1019.9 0.0000 0.0000
12:58 18.4 11.2 63 17 0.8 2.5 1019.8 0.0000 0.0000
13:09 18.6 11.4 63 357 0.8 2.2 1019.7 0.0000 0.0000
13:18 18.9 11.2 61 41 0.8 2.5 1019.7 0.0000 0.0000
13:28 19.2 11.5 61 47 0.8 2.2 1019.6 0.0000 0.0000
13:39 19.5 11.3 59 23 0.6 1.7 1019.6 0.0000 0.0000
13:49 19.7 11.5 59 37 0.8 2.2 1019.5 0.0000 0.0000
13:59 20 11.5 58 49 0.6 1.7 1019.5 0.0000 0.0000
14:08 20.1 11.6 58 135 0.6 1.1 1019.4 0.0000 0.0000
14:19 20.4 11.3 56 322 0.6 1.9 1019.3 0.0000 0.0000
14:29 20.5 11.7 57 45 0.6 1.4 1019.4 0.0000 0.0000
14:39 20.6 11.5 56 52 0.6 1.7 1019.3 0.0000 0.0000
14:49 20.7 11.3 55 14 0.6 1.1 1019.4 0.0000 0.0000
14:59 20.8 11.4 55 41 0.6 1.4 1019.4 0.0000 0.0000
15:09 20.8 11.4 55 56 0.8 3.1 1019.3 0.0000 0.0000
15:19 20.8 11.4 55 26 0.6 1.7 1019.3 0.0000 0.0000
15:30 20.7 11.3 55 54 0.6 1.9 1019.3 0.0000 0.0000
15:39 20.6 11 54 57 0.8 2.2 1019.4 0.0000 0.0000
15:49 20.4 10.8 54 45 0.8 2.5 1019.4 0.0000 0.0000
15:59 20.2 10.3 53 29 0.6 1.9 1019.4 0.0000 0.0000
16:10 20.1 10.8 55 52 0.6 1.4 1019.4 0.0000 0.0000
16:20 20 10.4 54 36 0.6 1.7 1019.3 0.0000 0.0000
16:29 20 10.7 55 14 0.6 1.9 1019.4 0.0000 0.0000
16:40 19.7 10.4 55 48 0.8 3.3 1019.4 0.0000 0.0000
16:50 19.4 10.4 56 38 0.6 1.7 1019.5 0.0000 0.0000
17:10 18.9 10.5 58 40 0.6 1.4 1019.5 0.0000 0.0000
17:20 18.6 10.4 59 36 0.3 1.1 1019.5 0.0000 0.0000
17:30 18.2 9.8 58 340 0.6 1.4 1019.6 0.0000 0.0000
17:40 17.9 9.8 59 8 0.3 1.1 1019.7 0.0000 0.0000
17:51 17.5 9.7 60 28 0.3 1.4 1019.8 0.0000 0.0000

DAY STATISTIC

2018-10-18
TEMPERATURE
AVERAGE
11.4
HIGH
20.8
14:59
LOW
4.8
06:56
PRESSURE
AVERAGE
1019.8
HIGH
1020.8
10:48
LOW
1019.3
14:19
DEWPOINT
AVERAGE
6.9
HIGH
11.8
12:28
LOW
2.3
06:56
HUMIDITY
AVERAGE
76
HIGH
88
08:47
LOW
53
15:59
WIND SPEED
AVERAGE
0.3
HIGH
0.8
12:48
WIND GUST
AVERAGE
1.1
HIGH
3.3
16:40
WIND DIRECTION
PREVAILING
NE
36.6%
N
9.9
NE
36.6
E
5.0
SE
1.0
S
2.0
SW
2.0
W
5.0
NW
7.9
PRECIPITATION
RAIN HOUR
0.0
RAIN DAY
0.0
TEMPERATURE (°C)
LOW
4.8
HIGH
20.8
AVERAGE
11.4
PRESSURE (hpa)
LOW
1019.3
HIGH
1020.8
AVERAGE
1019.8
DEVICE